Time;durP1;ratioP1;P1;durP2;ratioP2;P2;SDS_P1;SDS_P2;PMS_P1;PMS_P2;Temp;Humidity;BMP_temperature;BMP_pressure;BME280_temperature;BME280_humidity;BME280_pressure;Samples;Min_cycle;Max_cycle;Signal;HPM_P1;HPM_P2
2023/11/13 00:02:09;;;;;;;0.22;0.22;;;;;;;5.30;59.47;99462.91;5305137;26;26021;-85
2023/11/13 00:04:35;;;;;;;2.92;1.85;;;;;;;5.37;59.47;99459.34;5287837;26;20060;-87
2023/11/13 00:07:00;;;;;;;1.37;1.27;;;;;;;5.33;59.48;99468.84;5287599;26;20079;-86
2023/11/13 00:09:25;;;;;;;0.30;0.30;;;;;;;5.33;59.48;99463.69;5305044;26;29245;-86
2023/11/13 00:11:51;;;;;;;0.57;0.57;;;;;;;5.28;59.47;99464.66;5305658;26;20071;-86
2023/11/13 00:14:16;;;;;;;5.68;2.25;;;;;;;5.23;59.46;99473.31;5323843;26;20111;-86
2023/11/13 00:16:42;;;;;;;1.48;1.00;;;;;;;5.25;59.47;99475.87;5306515;26;20063;-85
2023/11/13 00:19:07;;;;;;;1.65;1.45;;;;;;;5.12;59.46;99482.91;5305221;26;20124;-84
2023/11/13 00:21:33;;;;;;;0.93;0.85;;;;;;;5.20;59.47;99473.38;5324069;26;20084;-84
2023/11/13 00:23:59;;;;;;;1.23;1.12;;;;;;;5.05;59.46;99473.56;5305213;26;20028;-86
2023/11/13 00:26:25;;;;;;;0.00;0.00;;;;;;;5.01;59.45;99483.97;5305111;26;20056;-84
2023/11/13 00:28:50;;;;;;;1.15;1.12;;;;;;;5.08;59.46;99483.00;5323669;26;20298;-86
2023/11/13 00:31:34;;;;;;;0.00;0.00;;;;;;;4.99;59.45;99476.25;5297760;27;20102;-86
2023/11/13 00:34:00;;;;;;;0.55;0.55;;;;;;;5.04;59.46;99482.19;5299800;27;20052;-85
2023/11/13 00:36:25;;;;;;;0.88;0.88;;;;;;;4.97;59.45;99480.56;5299937;27;20080;-85
2023/11/13 00:38:51;;;;;;;7.43;0.90;;;;;;;5.00;59.45;99484.84;5298008;27;34178;-86
2023/11/13 00:41:16;;;;;;;6.40;1.60;;;;;;;4.93;59.45;99471.16;5298372;27;20119;-86
2023/11/13 00:43:42;;;;;;;1.17;0.80;;;;;;;4.88;59.45;99471.22;5297285;27;34836;-86
2023/11/13 00:46:07;;;;;;;8.10;4.65;;;;;;;4.83;59.44;99461.84;5278824;27;27763;-85
2023/11/13 00:48:32;;;;;;;2.58;2.37;;;;;;;4.93;59.46;99464.25;5279491;27;20112;-85
2023/11/13 00:50:59;;;;;;;1.55;1.45;;;;;;;4.76;59.44;99467.97;5279668;27;20099;-84
2023/11/13 00:53:24;;;;;;;0.40;0.40;;;;;;;4.79;59.45;99460.19;5298234;27;20061;-87
2023/11/13 00:55:51;;;;;;;1.65;1.48;;;;;;;4.87;59.45;99458.34;5297645;27;20101;-84
2023/11/13 00:58:17;;;;;;;2.65;1.00;;;;;;;4.76;59.44;99455.06;5298207;27;20154;-86
2023/11/13 01:00:42;;;;;;;1.50;1.42;;;;;;;4.75;59.44;99453.38;5298348;27;20041;-83
2023/11/13 01:03:09;;;;;;;1.00;0.98;;;;;;;4.67;59.44;99443.13;5298001;27;20064;-85
2023/11/13 01:05:34;;;;;;;0.57;0.32;;;;;;;4.59;59.43;99438.09;5298978;27;20446;-85
2023/11/13 01:08:01;;;;;;;2.58;1.27;;;;;;;4.66;59.44;99443.16;5298089;27;20091;-85
2023/11/13 01:10:26;;;;;;;3.90;3.55;;;;;;;4.58;59.43;99438.13;5299089;27;20071;-86
2023/11/13 01:12:52;;;;;;;0.65;0.60;;;;;;;4.62;59.43;99445.78;5299942;27;20073;-85
2023/11/13 01:15:17;;;;;;;0.37;0.37;;;;;;;4.54;59.43;99450.19;5279762;27;20547;-85
2023/11/13 01:17:42;;;;;;;1.27;1.17;;;;;;;4.62;59.44;99448.34;5280045;27;20049;-84
2023/11/13 01:20:08;;;;;;;1.70;1.60;;;;;;;4.65;59.44;99449.19;5279831;27;21030;-84
2023/11/13 01:22:34;;;;;;;0.73;0.73;;;;;;;4.53;59.43;99451.06;5280017;27;20418;-85
2023/11/13 01:24:59;;;;;;;0.88;0.85;;;;;;;4.60;59.43;99452.69;5279602;27;20100;-86
2023/11/13 01:27:25;;;;;;;0.65;0.35;;;;;;;4.50;59.42;99445.09;5297621;27;20104;-86
2023/11/13 01:29:50;;;;;;;1.67;1.45;;;;;;;4.45;59.42;99462.31;5301209;26;25022;-85
2023/11/13 01:32:16;;;;;;;1.02;0.82;;;;;;;4.49;59.42;99466.56;5305389;26;30792;-85
2023/11/13 01:34:41;;;;;;;3.10;0.70;;;;;;;4.55;59.43;99476.81;5287000;26;20060;-86
2023/11/13 01:37:08;;;;;;;3.42;1.55;;;;;;;4.52;59.43;99482.87;5304868;26;20052;-85
2023/11/13 01:39:34;;;;;;;1.25;1.00;;;;;;;4.42;59.43;99491.56;5305560;26;20044;-86
2023/11/13 01:41:59;;;;;;;1.05;0.88;;;;;;;4.48;59.42;99486.31;5305506;26;20064;-85
2023/11/13 01:44:25;;;;;;;1.62;1.40;;;;;;;4.42;59.42;99493.28;5305168;26;20076;-85
2023/11/13 01:46:50;;;;;;;0.43;0.43;;;;;;;4.54;59.43;99499.16;5323346;26;20085;-86
2023/11/13 01:49:16;;;;;;;0.77;0.77;;;;;;;4.57;59.42;99490.53;5305225;26;20044;-86
2023/11/13 01:51:41;;;;;;;1.33;1.23;;;;;;;4.58;59.43;99495.66;5306302;26;20115;-85
2023/11/13 01:54:07;;;;;;;0.43;0.43;;;;;;;4.62;59.43;99505.06;5304114;26;27725;-85
2023/11/13 01:56:32;;;;;;;0.37;0.37;;;;;;;4.72;59.44;99508.38;5323612;26;20067;-86
2023/11/13 01:58:57;;;;;;;0.17;0.17;;;;;;;4.75;59.44;99510.09;5322864;26;29979;-85
2023/11/13 02:01:25;;;;;;;0.32;0.32;;;;;;;4.82;59.45;99497.09;5305282;26;20425;-84
2023/11/13 02:03:52;;;;;;;0.65;0.65;;;;;;;4.79;59.45;99499.72;5288246;26;20158;-85
2023/11/13 02:06:18;;;;;;;0.95;0.77;;;;;;;4.76;59.44;99498.91;5306104;26;20048;-86
2023/11/13 02:08:43;;;;;;;0.30;0.30;;;;;;;4.58;59.43;99490.53;5305559;26;20087;-85
2023/11/13 02:11:10;;;;;;;0.75;0.75;;;;;;;4.49;59.42;99502.62;5309251;26;20072;-85
2023/11/13 02:13:36;;;;;;;0.15;0.15;;;;;;;4.46;59.42;99500.09;5306430;26;20057;-86
2023/11/13 02:16:02;;;;;;;0.37;0.15;;;;;;;4.50;59.43;99497.50;5306103;26;20063;-85
2023/11/13 02:18:27;;;;;;;0.52;0.47;;;;;;;4.56;59.43;99500.00;5306288;26;20097;-84
2023/11/13 02:20:53;;;;;;;0.75;0.57;;;;;;;4.65;59.44;99491.28;5323667;26;29144;-85
2023/11/13 02:23:18;;;;;;;1.05;0.82;;;;;;;4.67;59.44;99488.69;5305934;26;20131;-85
2023/11/13 02:25:50;;;;;;;0.00;0.00;;;;;;;4.61;59.43;99493.06;5306062;26;20070;-86
2023/11/13 02:28:16;;;;;;;4.95;3.22;;;;;;;4.80;59.45;99487.69;5306453;26;20041;-85
2023/11/13 02:30:41;;;;;;;1.12;1.12;;;;;;;4.99;59.45;99498.59;5304956;26;26550;-85
2023/11/13 02:33:07;;;;;;;1.65;1.17;;;;;;;4.78;59.44;99497.16;5314792;26;29265;-85
2023/11/13 02:35:32;;;;;;;2.62;1.80;;;;;;;4.49;59.42;99493.19;5321967;26;20098;-83
2023/11/13 02:37:57;;;;;;;0.37;0.37;;;;;;;4.38;59.42;99494.19;5316465;26;20461;-84
2023/11/13 02:40:23;;;;;;;0.35;0.35;;;;;;;4.41;59.42;99501.88;5307280;26;31035;-85
2023/11/13 02:42:50;;;;;;;0.75;0.75;;;;;;;4.47;59.42;99501.81;5307280;26;20119;-86
2023/11/13 02:45:15;;;;;;;1.02;0.73;;;;;;;4.62;59.43;99493.91;5306175;26;20131;-85
2023/11/13 02:47:41;;;;;;;0.30;0.30;;;;;;;4.50;59.44;99494.91;5323827;26;20314;-86
2023/11/13 02:50:07;;;;;;;3.28;1.73;;;;;;;4.51;59.43;99494.06;5304654;26;29313;-85
2023/11/13 02:52:33;;;;;;;0.55;0.55;;;;;;;4.52;59.43;99497.47;5305838;26;20084;-85
2023/11/13 02:54:58;;;;;;;0.60;0.60;;;;;;;4.52;59.43;99494.91;5305983;26;20420;-85
2023/11/13 02:57:24;;;;;;;1.00;0.90;;;;;;;4.48;59.42;99501.78;5305034;26;28596;-85
2023/11/13 02:59:49;;;;;;;37.25;3.08;;;;;;;4.53;59.43;99500.03;5323955;26;20071;-86
2023/11/13 03:02:15;;;;;;;0.45;0.25;;;;;;;4.70;59.44;99507.53;5306032;26;20077;-84
2023/11/13 03:04:41;;;;;;;2.12;0.85;;;;;;;4.59;59.43;99507.69;5305139;26;28903;-84
2023/11/13 03:07:06;;;;;;;1.12;0.15;;;;;;;4.68;59.44;99495.56;5307381;26;20082;-85
2023/11/13 03:09:31;;;;;;;0.75;0.65;;;;;;;4.63;59.43;99490.47;5324931;26;20071;-85
2023/11/13 03:11:57;;;;;;;2.03;1.90;;;;;;;4.91;59.45;99476.34;5323927;26;25357;-84
2023/11/13 03:14:22;;;;;;;4.07;2.15;;;;;;;4.75;59.44;99479.16;5305647;26;20047;-84
2023/11/13 03:16:48;;;;;;;0.00;0.00;;;;;;;4.62;59.43;99489.59;5305191;26;20211;-85
2023/11/13 03:19:13;;;;;;;2.42;1.90;;;;;;;4.69;59.44;99494.69;5304698;26;28600;-85
2023/11/13 03:21:38;;;;;;;0.20;0.20;;;;;;;4.75;59.44;99477.44;5324232;26;27171;-86
2023/11/13 03:24:04;;;;;;;0.43;0.43;;;;;;;4.69;59.44;99482.63;5324609;26;21446;-86
2023/11/13 03:26:30;;;;;;;1.45;0.98;;;;;;;4.68;59.44;99478.34;5288454;26;20041;-85
2023/11/13 03:28:56;;;;;;;1.60;0.65;;;;;;;4.81;59.45;99473.91;5327271;26;20398;-85
2023/11/13 03:31:21;;;;;;;1.55;1.42;;;;;;;4.86;59.44;99464.38;5288145;26;20060;-86
2023/11/13 03:33:46;;;;;;;2.20;2.08;;;;;;;4.92;59.44;99469.44;5306096;26;20357;-85
2023/11/13 03:36:12;;;;;;;1.35;1.25;;;;;;;4.73;59.44;99470.56;5324310;26;23316;-85
2023/11/13 03:38:37;;;;;;;0.90;0.32;;;;;;;4.76;59.44;99465.38;5306871;26;20697;-85
2023/11/13 03:41:03;;;;;;;1.37;1.27;;;;;;;4.88;59.45;99472.94;5306609;26;20056;-85
2023/11/13 03:43:29;;;;;;;0.52;0.50;;;;;;;4.94;59.46;99468.53;5325068;26;20099;-83
2023/11/13 03:45:54;;;;;;;0.60;0.52;;;;;;;4.79;59.45;99468.78;5306911;26;20048;-84
2023/11/13 03:48:20;;;;;;;0.85;0.85;;;;;;;4.81;59.45;99469.59;5305882;26;35361;-85
2023/11/13 03:50:45;;;;;;;0.25;0.25;;;;;;;4.89;59.45;99472.06;5339190;26;25216;-81
2023/11/13 03:53:10;;;;;;;5.93;1.08;;;;;;;4.79;59.43;99468.78;5327980;26;20044;-85
2023/11/13 03:55:36;;;;;;;0.20;0.20;;;;;;;4.81;59.45;99471.34;5307930;26;20870;-85
2023/11/13 03:58:01;;;;;;;2.42;0.90;;;;;;;4.81;59.45;99463.59;5325412;26;20682;-85
2023/11/13 04:00:27;;;;;;;1.65;1.50;;;;;;;4.98;59.45;99471.97;5324621;26;21890;-84
2023/11/13 04:02:52;;;;;;;0.88;0.88;;;;;;;5.17;59.47;99467.37;5306368;26;20075;-85
2023/11/13 04:05:17;;;;;;;0.32;0.08;;;;;;;5.14;59.46;99473.44;5306459;26;20431;-85
2023/11/13 04:07:43;;;;;;;4.20;2.58;;;;;;;4.97;59.45;99470.25;5325054;26;20083;-85
2023/11/13 04:10:16;;;;;;;1.65;1.55;;;;;;;4.88;59.45;99470.38;5306963;26;20048;-85
2023/11/13 04:12:41;;;;;;;0.35;0.35;;;;;;;4.91;59.45;99463.44;5326641;26;20068;-84
2023/11/13 04:15:08;;;;;;;0.60;0.60;;;;;;;4.89;59.45;99466.91;5306573;26;20048;-85
2023/11/13 04:17:34;;;;;;;1.42;1.02;;;;;;;5.05;59.46;99480.47;5306871;26;20067;-85
2023/11/13 04:20:05;;;;;;;0.17;0.17;;;;;;;5.09;59.46;99482.97;5306783;26;20378;-85
2023/11/13 04:22:32;;;;;;;8.13;2.30;;;;;;;5.09;59.46;99484.69;5289835;26;20131;-85
2023/11/13 04:24:57;;;;;;;1.25;1.00;;;;;;;5.01;59.46;99492.56;5311657;26;20100;-84
2023/11/13 04:27:23;;;;;;;0.00;0.00;;;;;;;5.01;59.45;99486.53;5305431;26;37559;-84
2023/11/13 04:29:48;;;;;;;0.30;0.30;;;;;;;5.11;59.46;99480.38;5323909;26;26419;-84
2023/11/13 04:32:13;;;;;;;0.08;0.08;;;;;;;5.12;59.46;99484.66;5306262;26;25482;-85
2023/11/13 04:34:39;;;;;;;0.20;0.20;;;;;;;5.20;59.47;99487.97;5324536;26;24533;-85
2023/11/13 04:37:04;;;;;;;0.25;0.25;;;;;;;5.31;59.48;99480.94;5305550;26;33554;-85
2023/11/13 04:39:30;;;;;;;2.12;1.87;;;;;;;5.34;59.47;99480.88;5325089;26;20053;-85
2023/11/13 04:41:55;;;;;;;0.55;0.55;;;;;;;5.36;59.47;99486.88;5325439;26;20325;-84
2023/11/13 04:44:21;;;;;;;0.35;0.35;;;;;;;5.39;59.48;99489.41;5306021;26;32584;-84
2023/11/13 04:46:46;;;;;;;1.15;1.05;;;;;;;5.36;59.47;99491.19;5306685;26;29046;-84
2023/11/13 04:49:11;;;;;;;2.78;1.48;;;;;;;5.43;59.48;99493.62;5324397;26;29299;-85
2023/11/13 04:51:37;;;;;;;2.70;1.60;;;;;;;5.49;59.48;99487.56;5306912;26;20062;-85
2023/11/13 04:54:02;;;;;;;1.37;1.30;;;;;;;5.68;59.50;99491.56;5324576;26;30518;-85
2023/11/13 04:56:28;;;;;;;1.25;0.77;;;;;;;5.79;59.50;99499.97;5306712;26;20053;-86
2023/11/13 04:58:53;;;;;;;0.68;0.68;;;;;;;5.71;59.50;99488.06;5306051;26;31433;-85
2023/11/13 05:01:19;;;;;;;2.65;0.75;;;;;;;5.61;59.49;99482.19;5325248;26;20080;-85
2023/11/13 05:03:45;;;;;;;5.70;1.60;;;;;;;5.71;59.50;99476.00;5306950;26;20114;-85
2023/11/13 05:06:14;;;;;;;1.73;1.55;;;;;;;5.70;59.50;99469.13;5307770;26;20057;-85
2023/11/13 05:08:41;;;;;;;4.37;1.00;;;;;;;5.75;59.49;99476.81;5290685;26;20056;-85
2023/11/13 05:11:08;;;;;;;0.80;0.80;;;;;;;5.79;59.50;99475.87;5307328;26;20120;-85
2023/11/13 05:13:34;;;;;;;0.93;0.90;;;;;;;5.83;59.50;99485.25;5325442;26;20044;-85
2023/11/13 05:15:59;;;;;;;4.85;3.17;;;;;;;5.86;59.50;99480.03;5325286;26;20068;-85
2023/11/13 05:18:24;;;;;;;0.20;0.20;;;;;;;5.96;59.51;99465.28;5305884;26;31313;-86
2023/11/13 05:20:50;;;;;;;3.47;2.95;;;;;;;5.65;59.49;99488.13;5305899;26;34771;-85
2023/11/13 05:23:16;;;;;;;1.50;1.17;;;;;;;5.53;59.49;99491.78;5324521;26;23732;-85
2023/11/13 05:25:43;;;;;;;1.35;1.25;;;;;;;5.51;59.48;99499.56;5307316;26;20076;-85
2023/11/13 05:28:08;;;;;;;0.68;0.68;;;;;;;5.47;59.48;99503.06;5307140;26;20081;-85
2023/11/13 05:30:36;;;;;;;2.10;1.00;;;;;;;5.44;59.48;99503.13;5299403;27;20080;-85
2023/11/13 05:33:02;;;;;;;1.15;1.05;;;;;;;5.51;59.48;99509.88;5300849;27;20116;-85
2023/11/13 05:35:27;;;;;;;2.00;1.33;;;;;;;5.63;59.49;99526.91;5299562;27;20428;-85
2023/11/13 05:37:53;;;;;;;1.05;0.93;;;;;;;5.60;59.48;99531.25;5299208;27;28838;-86
2023/11/13 05:40:19;;;;;;;0.08;0.08;;;;;;;5.41;59.48;99522.94;5300271;27;20076;-86
2023/11/13 05:42:44;;;;;;;2.20;2.03;;;;;;;5.42;59.47;99522.91;5303266;27;20073;-86
2023/11/13 05:45:14;;;;;;;2.15;1.58;;;;;;;5.51;59.48;99521.94;5298468;27;32393;-87
2023/11/13 05:47:39;;;;;;;1.08;1.08;;;;;;;5.60;59.48;99526.09;5299988;27;20090;-86
2023/11/13 05:50:05;;;;;;;1.55;1.45;;;;;;;5.62;59.49;99532.94;5299765;27;20413;-85
2023/11/13 05:52:30;;;;;;;2.03;1.80;;;;;;;5.64;59.49;99535.50;5281504;27;20045;-86
2023/11/13 05:54:56;;;;;;;3.53;3.22;;;;;;;5.58;59.48;99531.28;5299590;27;20057;-86
2023/11/13 05:57:21;;;;;;;2.42;2.28;;;;;;;5.73;59.49;99528.47;5299563;27;20083;-86
2023/11/13 05:59:47;;;;;;;1.08;1.08;;;;;;;5.77;59.50;99537.88;5298973;27;24466;-85
2023/11/13 06:02:13;;;;;;;0.25;0.25;;;;;;;5.78;59.50;99555.06;5300106;27;20056;-85
2023/11/13 06:04:43;;;;;;;2.40;1.00;;;;;;;5.80;59.49;99555.91;5300988;27;20083;-85
2023/11/13 06:07:08;;;;;;;1.95;1.85;;;;;;;5.84;59.51;99556.69;5281961;27;20057;-86
2023/11/13 06:09:33;;;;;;;0.15;0.15;;;;;;;5.88;59.50;99560.94;5280458;27;37090;-85
2023/11/13 06:11:59;;;;;;;0.57;0.30;;;;;;;5.93;59.51;99556.59;5281316;27;20144;-86
2023/11/13 06:14:25;;;;;;;0.80;0.80;;;;;;;5.98;59.50;99561.69;5281775;27;20131;-85
2023/11/13 06:16:51;;;;;;;0.32;0.32;;;;;;;6.13;59.51;99558.81;5299627;27;20074;-85
2023/11/13 06:19:16;;;;;;;1.10;1.05;;;;;;;6.19;59.52;99560.47;5300149;27;27574;-85
2023/11/13 06:21:41;;;;;;;1.00;1.00;;;;;;;6.67;59.55;99553.56;5280641;27;28719;-85
2023/11/13 06:24:10;;;;;;;0.73;0.73;;;;;;;6.73;59.56;99551.69;5301096;27;20049;-86
2023/11/13 06:26:36;;;;;;;0.60;0.60;;;;;;;6.84;59.56;99545.44;5299162;27;20110;-86
2023/11/13 06:29:01;;;;;;;4.97;3.45;;;;;;;6.87;59.55;99555.75;5299114;27;20133;-85
2023/11/13 06:31:27;;;;;;;2.75;1.10;;;;;;;6.68;59.55;99552.69;5315320;27;20382;-84
2023/11/13 06:33:52;;;;;;;3.35;3.15;;;;;;;6.60;59.55;99559.72;5284491;27;20367;-85
2023/11/13 06:36:18;;;;;;;0.85;0.82;;;;;;;6.72;59.55;99551.72;5302381;27;20460;-86
2023/11/13 06:38:45;;;;;;;3.85;1.45;;;;;;;6.76;59.55;99543.87;5284806;27;20388;-85
2023/11/13 06:41:11;;;;;;;2.42;2.08;;;;;;;7.21;59.58;99553.31;5285356;27;20102;-86
2023/11/13 06:43:36;;;;;;;1.65;1.55;;;;;;;7.18;59.58;99553.38;5303880;27;20119;-86
2023/11/13 06:46:04;;;;;;;2.28;1.58;;;;;;;7.27;59.58;99553.16;5285856;27;20661;-86
2023/11/13 06:48:29;;;;;;;5.70;1.90;;;;;;;7.29;59.58;99543.63;5285714;27;20531;-86
2023/11/13 06:50:55;;;;;;;2.40;1.20;;;;;;;7.25;59.59;99536.81;5284355;27;31257;-86
2023/11/13 06:53:20;;;;;;;1.87;1.77;;;;;;;7.18;59.58;99546.47;5285133;27;31418;-86
2023/11/13 06:55:47;;;;;;;1.00;0.93;;;;;;;7.24;59.58;99550.66;5304781;27;20127;-86
2023/11/13 06:58:13;;;;;;;2.28;2.08;;;;;;;7.13;59.57;99550.91;5306418;27;20053;-85
2023/11/13 07:00:38;;;;;;;2.72;2.25;;;;;;;7.18;59.58;99553.38;5284480;27;20076;-86
2023/11/13 07:03:04;;;;;;;0.73;0.73;;;;;;;7.15;59.57;99556.88;5302972;27;20108;-86
2023/11/13 07:05:31;;;;;;;2.00;0.77;;;;;;;7.17;59.57;99559.44;5301995;27;31012;-86
2023/11/13 07:07:56;;;;;;;2.30;1.48;;;;;;;7.04;59.57;99570.03;5284900;27;20087;-86
2023/11/13 07:10:22;;;;;;;0.73;0.73;;;;;;;7.07;59.57;99584.66;5284646;27;20341;-86
2023/11/13 07:12:50;;;;;;;0.73;0.73;;;;;;;7.17;59.57;99587.91;5302646;27;20429;-86
2023/11/13 07:15:15;;;;;;;0.90;0.90;;;;;;;7.23;59.57;99591.22;5285316;27;20061;-85
2023/11/13 07:17:41;;;;;;;1.05;1.05;;;;;;;7.43;59.59;99582.19;5302576;27;20116;-86
2023/11/13 07:20:08;;;;;;;0.75;0.75;;;;;;;7.47;59.59;99586.41;5284931;27;20068;-86
2023/11/13 07:22:34;;;;;;;0.85;0.75;;;;;;;7.55;59.60;99577.56;5302903;27;20078;-85
2023/11/13 07:24:59;;;;;;;0.00;0.00;;;;;;;7.79;59.61;99578.75;5284501;27;20093;-86
2023/11/13 07:27:25;;;;;;;2.87;0.75;;;;;;;8.09;59.63;99576.31;5320223;27;30327;-85
2023/11/13 07:29:50;;;;;;;9.63;4.18;;;;;;;8.21;59.63;99573.41;5304287;26;20049;-85
2023/11/13 07:32:16;;;;;;;2.28;2.17;;;;;;;8.08;59.63;99566.84;5306125;26;20521;-85
2023/11/13 07:34:41;;;;;;;5.30;1.15;;;;;;;8.36;59.64;99562.69;5305502;26;22119;-85
2023/11/13 07:37:07;;;;;;;1.98;1.15;;;;;;;8.32;59.64;99561.03;5304972;26;35822;-85
2023/11/13 07:39:33;;;;;;;0.85;0.65;;;;;;;8.44;59.64;99565.06;5306878;26;20024;-85
2023/11/13 07:41:58;;;;;;;0.43;0.40;;;;;;;8.39;59.64;99562.59;5305830;26;20112;-85
2023/11/13 07:44:24;;;;;;;0.98;0.93;;;;;;;8.59;59.66;99562.09;5306012;26;20075;-85
2023/11/13 07:46:51;;;;;;;0.60;0.55;;;;;;;8.70;59.66;99567.81;5305877;26;20448;-85
2023/11/13 07:49:16;;;;;;;1.67;1.58;;;;;;;8.83;59.67;99557.97;5288123;26;20122;-86
2023/11/13 07:51:43;;;;;;;1.52;1.42;;;;;;;8.89;59.67;99556.03;5305934;26;20112;-85
2023/11/13 07:54:09;;;;;;;2.47;1.30;;;;;;;9.06;59.68;99552.13;5324523;26;20095;-85
2023/11/13 07:56:35;;;;;;;0.75;0.75;;;;;;;9.30;59.70;99554.00;5306053;26;20056;-85
2023/11/13 07:59:05;;;;;;;1.08;0.82;;;;;;;9.24;59.69;99561.97;5305988;26;20062;-85
2023/11/13 08:01:31;;;;;;;0.90;0.88;;;;;;;9.22;59.69;99554.22;5336966;26;20039;-85
2023/11/13 08:03:56;;;;;;;1.83;1.25;;;;;;;9.44;59.70;99559.63;5316661;26;20072;-86
2023/11/13 08:06:22;;;;;;;0.55;0.55;;;;;;;9.47;59.70;99556.09;5327843;26;24999;-86
2023/11/13 08:08:49;;;;;;;0.95;0.93;;;;;;;9.66;59.71;99552.00;5325384;26;23664;-85
2023/11/13 08:11:15;;;;;;;1.98;1.87;;;;;;;9.52;59.70;99549.84;5325697;26;20076;-86
2023/11/13 08:13:41;;;;;;;1.30;1.20;;;;;;;9.63;59.70;99535.66;5306930;26;20840;-86
2023/11/13 08:16:08;;;;;;;1.27;0.95;;;;;;;9.68;59.71;99528.56;5325202;26;20052;-86
2023/11/13 08:18:33;;;;;;;0.20;0.20;;;;;;;9.68;59.72;99532.00;5288887;26;20772;-86
2023/11/13 08:20:59;;;;;;;1.02;0.93;;;;;;;9.68;59.71;99545.00;5307072;26;20125;-86
2023/11/13 08:23:28;;;;;;;1.55;1.33;;;;;;;9.75;59.72;99550.87;5306866;26;20440;-86
2023/11/13 08:25:53;;;;;;;1.85;1.48;;;;;;;9.48;59.70;99557.78;5307466;26;20453;-86
2023/11/13 08:28:19;;;;;;;0.68;0.68;;;;;;;9.35;59.70;99577.22;5325737;26;20099;-86
2023/11/13 08:30:44;;;;;;;1.62;1.50;;;;;;;9.63;59.70;99580.69;5325149;26;20346;-86
2023/11/13 08:33:10;;;;;;;1.55;1.45;;;;;;;9.83;59.72;99572.28;5306130;26;33298;-86
2023/11/13 08:35:37;;;;;;;3.65;1.83;;;;;;;10.03;59.74;99576.84;5291206;26;20067;-86
2023/11/13 08:38:02;;;;;;;0.17;0.17;;;;;;;10.03;59.74;99577.69;5306863;26;20049;-86
2023/11/13 08:40:29;;;;;;;0.37;0.37;;;;;;;10.20;59.74;99569.34;5306393;26;20463;-86
2023/11/13 08:42:54;;;;;;;0.57;0.55;;;;;;;10.16;59.75;99573.78;5306839;26;20068;-86
2023/11/13 08:45:20;;;;;;;3.67;3.12;;;;;;;10.34;59.75;99574.09;5306805;26;20457;-86
2023/11/13 08:47:47;;;;;;;3.50;2.87;;;;;;;10.38;59.75;99580.91;5306933;26;20068;-86
2023/11/13 08:50:12;;;;;;;0.45;0.45;;;;;;;10.48;59.76;99571.03;5307351;26;20120;-86
2023/11/13 08:52:40;;;;;;;1.67;1.58;;;;;;;10.47;59.75;99574.53;5306885;26;20107;-86
2023/11/13 08:55:10;;;;;;;1.08;1.08;;;;;;;10.44;59.75;99585.91;5307265;26;20048;-86
2023/11/13 08:57:38;;;;;;;0.60;0.60;;;;;;;10.63;59.77;99568.72;5310093;26;20066;-85
2023/11/13 09:00:04;;;;;;;3.60;1.37;;;;;;;10.81;59.77;99566.41;5325719;26;20107;-86
2023/11/13 09:02:30;;;;;;;16.33;2.30;;;;;;;10.77;59.78;99563.91;5306814;26;20056;-86
2023/11/13 09:04:55;;;;;;;4.40;0.73;;;;;;;10.93;59.79;99560.75;5307000;26;20100;-86
2023/11/13 09:07:21;;;;;;;2.40;2.20;;;;;;;10.93;59.79;99568.56;5325160;26;20076;-86
2023/11/13 09:09:46;;;;;;;1.90;1.67;;;;;;;10.89;59.78;99569.59;5306746;26;20102;-86
2023/11/13 09:12:12;;;;;;;0.68;0.68;;;;;;;10.83;59.77;99570.62;5306747;26;20056;-86
2023/11/13 09:14:42;;;;;;;0.45;0.45;;;;;;;10.87;59.78;99568.78;5306723;26;20045;-85
2023/11/13 09:17:12;;;;;;;1.00;0.85;;;;;;;10.82;59.78;99565.47;5306338;26;20059;-86
2023/11/13 09:19:40;;;;;;;0.85;0.85;;;;;;;10.73;59.77;99559.72;5310063;26;20064;-86
2023/11/13 09:22:12;;;;;;;0.40;0.40;;;;;;;10.77;59.78;99566.50;5307624;26;20514;-86
2023/11/13 09:24:41;;;;;;;0.88;0.35;;;;;;;10.83;59.77;99555.00;5307580;26;20049;-86
2023/11/13 09:27:09;;;;;;;1.95;1.83;;;;;;;10.77;59.78;99561.28;5288857;26;20067;-86
2023/11/13 09:29:39;;;;;;;0.37;0.35;;;;;;;10.92;59.79;99559.91;5307103;26;20078;-85
2023/11/13 09:32:11;;;;;;;4.43;0.68;;;;;;;11.06;59.79;99562.84;5288565;26;20056;-86
2023/11/13 09:34:36;;;;;;;3.60;1.37;;;;;;;11.33;59.81;99557.50;5307080;26;20106;-86
2023/11/13 09:37:05;;;;;;;1.37;1.08;;;;;;;11.06;59.78;99559.37;5324984;26;20052;-86
2023/11/13 09:39:42;;;;;;;2.05;1.95;;;;;;;11.11;59.79;99552.25;5325736;26;20060;-86
2023/11/13 09:42:18;;;;;;;6.03;1.17;;;;;;;11.41;59.81;99552.00;5307757;26;20411;-85
2023/11/13 09:44:43;;;;;;;0.62;0.40;;;;;;;11.21;59.79;99565.78;5288972;26;20346;-86
2023/11/13 09:47:10;;;;;;;1.00;0.75;;;;;;;11.27;59.80;99558.59;5307143;26;20045;-86
2023/11/13 09:49:44;;;;;;;0.03;0.03;;;;;;;11.43;59.80;99560.63;5289260;26;20075;-86
2023/11/13 09:52:09;;;;;;;1.17;1.00;;;;;;;11.42;59.81;99556.31;5310187;26;20111;-86
2023/11/13 09:54:35;;;;;;;0.70;0.70;;;;;;;11.61;59.82;99536.44;5307810;26;20421;-86
2023/11/13 09:57:01;;;;;;;0.20;0.20;;;;;;;11.72;59.82;99531.62;5306434;26;20053;-86
2023/11/13 09:59:34;;;;;;;0.10;0.10;;;;;;;11.68;59.82;99533.53;5305821;26;30048;-86
2023/11/13 10:02:00;;;;;;;0.00;0.00;;;;;;;11.76;59.83;99537.56;5308255;26;20086;-86
2023/11/13 10:04:25;;;;;;;0.20;0.20;;;;;;;11.78;59.83;99541.84;5306712;26;20398;-86
2023/11/13 10:06:52;;;;;;;0.65;0.65;;;;;;;11.87;59.83;99536.28;5288508;26;20048;-86
2023/11/13 10:09:21;;;;;;;2.30;0.50;;;;;;;11.96;59.83;99538.50;5288617;26;20091;-86
2023/11/13 10:11:48;;;;;;;0.30;0.30;;;;;;;12.11;59.84;99542.25;5325755;26;20486;-86
2023/11/13 10:14:17;;;;;;;0.15;0.15;;;;;;;12.36;59.87;99533.38;5289646;26;20104;-86
2023/11/13 10:16:52;;;;;;;0.35;0.35;;;;;;;12.51;59.87;99536.16;5307295;26;20049;-85
2023/11/13 10:19:17;;;;;;;0.73;0.73;;;;;;;12.35;59.86;99532.53;5306715;26;20060;-86
2023/11/13 10:21:43;;;;;;;0.35;0.35;;;;;;;12.41;59.86;99534.03;5305996;26;23749;-86
2023/11/13 10:24:21;;;;;;;0.93;0.93;;;;;;;12.38;59.86;99536.78;5306467;26;20067;-86
2023/11/13 10:26:48;;;;;;;1.75;1.02;;;;;;;12.48;59.87;99536.31;5307486;26;20070;-87
2023/11/13 10:29:25;;;;;;;2.00;0.65;;;;;;;12.59;59.87;99541.94;5306508;26;20389;-86
2023/11/13 10:31:52;;;;;;;1.87;1.77;;;;;;;12.66;59.88;99531.22;5281240;27;20075;-86
2023/11/13 10:34:20;;;;;;;0.80;0.80;;;;;;;12.68;59.88;99532.84;5283011;27;20057;-85
2023/11/13 10:36:56;;;;;;;0.73;0.73;;;;;;;12.78;59.88;99535.91;5281795;27;20058;-86
2023/11/13 10:39:36;;;;;;;0.60;0.55;;;;;;;12.90;59.89;99535.34;5300622;27;20057;-86
2023/11/13 10:42:05;;;;;;;0.10;0.10;;;;;;;12.95;59.89;99542.97;5299206;27;20079;-86
2023/11/13 10:44:36;;;;;;;1.10;0.62;;;;;;;13.02;59.89;99541.78;5299554;27;20073;-86
2023/11/13 10:47:33;;;;;;;1.80;1.20;;;;;;;12.88;59.90;99538.03;5281504;27;20048;-86
2023/11/13 10:49:59;;;;;;;2.17;1.23;;;;;;;12.83;59.89;99533.94;5276645;27;20075;-86
2023/11/13 10:52:27;;;;;;;1.20;0.40;;;;;;;12.93;59.89;99534.34;5298779;27;20057;-86
2023/11/13 10:54:53;;;;;;;2.65;0.88;;;;;;;12.94;59.89;99522.97;5299127;27;20072;-86
2023/11/13 10:57:19;;;;;;;0.20;0.20;;;;;;;13.18;59.90;99514.06;5281162;27;20045;-86
2023/11/13 10:59:49;;;;;;;0.88;0.88;;;;;;;13.30;59.91;99513.50;5299832;27;20112;-86
2023/11/13 11:02:34;;;;;;;1.75;1.25;;;;;;;13.40;59.92;99516.53;5301448;27;20075;-86
2023/11/13 11:05:00;;;;;;;0.62;0.62;;;;;;;13.31;59.91;99517.81;5303123;27;20098;-86
2023/11/13 11:07:26;;;;;;;3.00;1.80;;;;;;;13.61;59.93;99515.50;5303921;27;20025;-86
2023/11/13 11:09:56;;;;;;;0.22;0.22;;;;;;;13.03;59.89;99518.22;5305799;27;20036;-86
2023/11/13 11:12:21;;;;;;;0.15;0.15;;;;;;;13.30;59.91;99507.44;5280969;27;20062;-86
2023/11/13 11:15:04;;;;;;;0.40;0.40;;;;;;;13.21;59.91;99493.84;5298832;27;20083;-86
2023/11/13 11:17:33;;;;;;;1.37;1.27;;;;;;;13.44;59.92;99491.91;5281803;27;20050;-86
2023/11/13 11:20:05;;;;;;;1.37;1.17;;;;;;;13.27;59.92;99497.13;5280859;27;20473;-86
2023/11/13 11:22:50;;;;;;;0.95;0.90;;;;;;;13.39;59.92;99489.53;5299569;27;20057;-86
2023/11/13 11:25:46;;;;;;;0.73;0.47;;;;;;;13.34;59.92;99488.06;5298770;27;20045;-86
2023/11/13 11:28:44;;;;;;;0.35;0.35;;;;;;;13.32;59.91;99495.97;5301198;27;20084;-86
2023/11/13 11:31:38;;;;;;;1.02;0.95;;;;;;;13.28;59.91;99498.81;5313430;27;20448;-86
2023/11/13 11:34:06;;;;;;;0.75;0.75;;;;;;;13.46;59.92;99500.53;5320753;27;20025;-86
2023/11/13 11:36:35;;;;;;;0.65;0.55;;;;;;;13.41;59.92;99499.91;5283955;27;20052;-86
2023/11/13 11:39:21;;;;;;;4.75;1.83;;;;;;;13.59;59.94;99498.19;5302557;27;20330;-86